Hauptseite
METAR-TAF:

METAR-TAF

Flughäfen :

Flughafen Sliač

Banská Bystrica, Slowakei

Breite: 48-38-17N, Länge: 019-08-03E, Höhe: 318 m

Beobachtung

Neuester Wetterbericht von vor 24 Minuten, um 00:00 UTC
Windstille
Temperatur 16°C
Luftfeuchtigkeit 88%
Luftdruck 1020 hPa
Sichtweite 10 km oder mehr
Leicht bewölkt in der Höhe von 6000 ft

METAR: LZSL 210000Z 00000KT 9999 FEW060 16/14 Q1020

Zeit: 02:24 (00:24 UTC)

Prognose

Neuester Wetterbericht von vor 1 Stunde und 24 Minuten, um 23:00 UTC
Gültige Prognose vom 21 um 00 UTC bis 21 um 09 UTC
Wind 2 kt aus unterschiedlichen Richtungen
Sichtweite 10 km oder mehr
keine Wolken unter 1500 m und keine Kumulonimbus oder Gewitterwolken
Übergehend zu
vom 21 um 07 UTC bis 21 um 09 UTC
Wind 6 kt aus Süd
Sichtweite 10 km oder mehr
Aufgelockert bewölkt in der Höhe von 4200 ft

TAF: LZSL 202300Z 2100/2109 VRB02KT CAVOK BECMG 2107/2109 18006KT 9999 SCT042

Wetterbeobachtungen und Prognosen von mehr als 4000 Flughäfen (METAR und TAF Bericht).

Die verfügbaren Stationen werden durch gelbe und rote Markierungen auf der Karte dargestellt.

Führen Sie die Maus auf sie, um den Namen der Station zu sehen.

Darauf klicken, um die Beobachtung von Wetterbeobachtungen und Prognosen zu sehen.

Um die Karte zu ändern : klicken Sie auf den grünen Tasten mit einem schwarzen Kreuz Zum Vergrößern, auf den grünen Button mit einem Gedankenstrich zu verkleinern, oder auf die grünen Pfeile für benachbarte Karten.


METAR-TAF: